sensor_id;sensor_type;location;lat;lon;timestamp;pressure;altitude;pressure_sealevel;temperature;humidity
47763;BME280;33526;42.690;23.322;2023-04-02T00:08:00;94198.84;;;8.31;65.08
47763;BME280;33526;42.690;23.322;2023-04-02T00:16:22;94191.75;;;8.30;64.23
47763;BME280;33526;42.690;23.322;2023-04-02T00:22:57;94185.88;;;8.28;64.01
47763;BME280;33526;42.690;23.322;2023-04-02T00:26:04;94185.59;;;8.26;63.69
47763;BME280;33526;42.690;23.322;2023-04-02T00:28:33;94180.00;;;8.26;63.52
47763;BME280;33526;42.690;23.322;2023-04-02T00:31:08;94181.56;;;8.27;63.45
47763;BME280;33526;42.690;23.322;2023-04-02T00:33:37;94175.06;;;8.30;63.55
47763;BME280;33526;42.690;23.322;2023-04-02T00:36:24;94097.50;;;7.75;63.89
47763;BME280;33526;42.690;23.322;2023-04-02T00:39:14;94176.75;;;8.28;63.65
47763;BME280;33526;42.690;23.322;2023-04-02T00:42:02;94183.41;;;8.30;64.17
47763;BME280;33526;42.690;23.322;2023-04-02T00:44:31;94178.50;;;8.25;63.86
47763;BME280;33526;42.690;23.322;2023-04-02T00:47:05;94177.69;;;8.24;64.11
47763;BME280;33526;42.690;23.322;2023-04-02T00:54:51;94175.53;;;8.29;63.55
47763;BME280;33526;42.690;23.322;2023-04-02T00:57:20;94171.78;;;8.32;63.04
47763;BME280;33526;42.690;23.322;2023-04-02T00:59:52;94170.81;;;8.35;62.53
47763;BME280;33526;42.690;23.322;2023-04-02T01:02:20;94164.31;;;8.38;62.89
47763;BME280;33526;42.690;23.322;2023-04-02T01:04:57;94168.16;;;8.40;62.44
47763;BME280;33526;42.690;23.322;2023-04-02T01:12:26;94175.44;;;8.38;62.66
47763;BME280;33526;42.690;23.322;2023-04-02T01:23:17;94183.09;;;8.28;62.29
47763;BME280;33526;42.690;23.322;2023-04-02T01:25:52;94192.22;;;8.04;64.96
47763;BME280;33526;42.690;23.322;2023-04-02T01:31:36;94190.56;;;6.33;73.92
47763;BME280;33526;42.690;23.322;2023-04-02T01:34:50;94195.22;;;6.27;75.22
47763;BME280;33526;42.690;23.322;2023-04-02T01:47:06;94194.75;;;6.28;75.92
47763;BME280;33526;42.690;23.322;2023-04-02T01:49:42;94189.00;;;6.23;76.09
47763;BME280;33526;42.690;23.322;2023-04-02T01:52:08;94192.75;;;6.20;76.64
47763;BME280;33526;42.690;23.322;2023-04-02T01:54:36;94192.41;;;6.08;77.01
47763;BME280;33526;42.690;23.322;2023-04-02T01:57:03;94191.50;;;6.21;77.25
47763;BME280;33526;42.690;23.322;2023-04-02T01:59:29;94186.69;;;6.12;77.34
47763;BME280;33526;42.690;23.322;2023-04-02T02:02:10;94178.66;;;5.96;78.66
47763;BME280;33526;42.690;23.322;2023-04-02T02:04:44;94182.00;;;5.90;79.08
47763;BME280;33526;42.690;23.322;2023-04-02T02:07:14;94178.47;;;5.90;79.09
47763;BME280;33526;42.690;23.322;2023-04-02T02:09:42;94177.88;;;5.95;78.82
47763;BME280;33526;42.690;23.322;2023-04-02T02:12:10;94180.06;;;6.00;78.36
47763;BME280;33526;42.690;23.322;2023-04-02T02:14:38;94181.59;;;6.01;78.15
47763;BME280;33526;42.690;23.322;2023-04-02T02:17:43;94174.69;;;6.15;78.13
47763;BME280;33526;42.690;23.322;2023-04-02T02:20:46;94182.84;;;6.28;77.32
47763;BME280;33526;42.690;23.322;2023-04-02T02:23:56;94182.25;;;6.42;76.46
47763;BME280;33526;42.690;23.322;2023-04-02T02:29:53;94185.00;;;6.51;76.72
47763;BME280;33526;42.690;23.322;2023-04-02T02:32:19;94177.63;;;6.58;75.92
47763;BME280;33526;42.690;23.322;2023-04-02T02:34:47;94182.22;;;6.61;75.77
47763;BME280;33526;42.690;23.322;2023-04-02T02:37:14;94183.16;;;6.67;74.90
47763;BME280;33526;42.690;23.322;2023-04-02T02:39:43;94187.94;;;6.66;74.76
47763;BME280;33526;42.690;23.322;2023-04-02T02:42:15;94178.81;;;6.66;75.48
47763;BME280;33526;42.690;23.322;2023-04-02T02:44:43;94177.91;;;6.69;75.05
47763;BME280;33526;42.690;23.322;2023-04-02T02:47:13;94170.47;;;6.75;74.55
47763;BME280;33526;42.690;23.322;2023-04-02T02:49:40;94179.13;;;6.77;73.59
47763;BME280;33526;42.690;23.322;2023-04-02T02:54:32;94180.94;;;6.89;72.16
47763;BME280;33526;42.690;23.322;2023-04-02T02:57:00;94189.44;;;6.95;72.20
47763;BME280;33526;42.690;23.322;2023-04-02T02:59:27;94184.97;;;6.98;71.82
47763;BME280;33526;42.690;23.322;2023-04-02T03:01:53;94195.13;;;7.10;71.95
47763;BME280;33526;42.690;23.322;2023-04-02T03:04:20;94185.84;;;7.13;71.33
47763;BME280;33526;42.690;23.322;2023-04-02T03:06:50;94192.97;;;7.05;72.79
47763;BME280;33526;42.690;23.322;2023-04-02T03:09:37;94194.25;;;6.76;74.54
47763;BME280;33526;42.690;23.322;2023-04-02T03:15:01;94183.78;;;6.62;76.85
47763;BME280;33526;42.690;23.322;2023-04-02T03:17:33;94190.88;;;6.63;76.63
47763;BME280;33526;42.690;23.322;2023-04-02T03:20:03;94199.53;;;6.65;76.70
47763;BME280;33526;42.690;23.322;2023-04-02T03:22:34;94198.13;;;6.42;75.07
47763;BME280;33526;42.690;23.322;2023-04-02T03:25:23;94195.22;;;6.36;75.50
47763;BME280;33526;42.690;23.322;2023-04-02T03:27:50;94200.75;;;6.18;76.76
47763;BME280;33526;42.690;23.322;2023-04-02T03:32:43;94204.13;;;6.22;77.31
47763;BME280;33526;42.690;23.322;2023-04-02T03:38:19;94203.53;;;6.27;77.21
47763;BME280;33526;42.690;23.322;2023-04-02T03:43:24;94217.72;;;6.20;78.06
47763;BME280;33526;42.690;23.322;2023-04-02T03:45:55;94208.59;;;6.19;79.00
47763;BME280;33526;42.690;23.322;2023-04-02T03:48:33;94199.97;;;6.17;79.04
47763;BME280;33526;42.690;23.322;2023-04-02T03:51:12;94204.44;;;6.24;79.18
47763;BME280;33526;42.690;23.322;2023-04-02T03:53:38;94206.25;;;5.99;78.99
47763;BME280;33526;42.690;23.322;2023-04-02T03:56:04;94198.81;;;5.87;80.39
47763;BME280;33526;42.690;23.322;2023-04-02T03:58:37;94209.88;;;5.78;79.26
47763;BME280;33526;42.690;23.322;2023-04-02T04:01:12;94200.78;;;5.68;79.35
47763;BME280;33526;42.690;23.322;2023-04-02T04:03:42;94203.69;;;5.64;78.90
47763;BME280;33526;42.690;23.322;2023-04-02T04:06:10;94201.53;;;5.68;78.50
47763;BME280;33526;42.690;23.322;2023-04-02T04:08:43;94207.09;;;5.68;78.44
47763;BME280;33526;42.690;23.322;2023-04-02T04:11:14;94208.97;;;5.81;78.81
47763;BME280;33526;42.690;23.322;2023-04-02T04:14:42;94223.75;;;5.78;78.78
47763;BME280;33526;42.690;23.322;2023-04-02T04:19:29;94227.78;;;5.86;80.22
47763;BME280;33526;42.690;23.322;2023-04-02T04:22:07;94229.66;;;5.89;80.70
47763;BME280;33526;42.690;23.322;2023-04-02T04:24:34;94227.13;;;5.72;81.19
47763;BME280;33526;42.690;23.322;2023-04-02T04:31:54;94234.84;;;5.78;80.26
47763;BME280;33526;42.690;23.322;2023-04-02T04:34:53;94234.06;;;5.68;79.28
47763;BME280;33526;42.690;23.322;2023-04-02T04:37:24;94233.56;;;5.60;79.00
47763;BME280;33526;42.690;23.322;2023-04-02T04:42:19;94242.97;;;5.63;78.19
47763;BME280;33526;42.690;23.322;2023-04-02T04:44:48;94239.47;;;5.71;77.86
47763;BME280;33526;42.690;23.322;2023-04-02T04:47:19;94240.13;;;5.94;77.97
47763;BME280;33526;42.690;23.322;2023-04-02T04:49:53;94247.00;;;6.30;76.67
47763;BME280;33526;42.690;23.322;2023-04-02T04:54:46;94248.13;;;6.97;76.16
47763;BME280;33526;42.690;23.322;2023-04-02T05:00:02;94248.44;;;7.51;72.60
47763;BME280;33526;42.690;23.322;2023-04-02T05:02:46;94251.34;;;7.66;72.30
47763;BME280;33526;42.690;23.322;2023-04-02T05:05:30;94250.63;;;8.14;70.67
47763;BME280;33526;42.690;23.322;2023-04-02T05:08:31;94254.19;;;8.38;68.87
47763;BME280;33526;42.690;23.322;2023-04-02T05:11:19;94259.69;;;8.57;67.94
47763;BME280;33526;42.690;23.322;2023-04-02T05:14:24;94260.25;;;8.85;66.52
47763;BME280;33526;42.690;23.322;2023-04-02T05:17:26;94262.88;;;9.04;65.78
47763;BME280;33526;42.690;23.322;2023-04-02T05:20:04;94258.81;;;8.90;66.97
47763;BME280;33526;42.690;23.322;2023-04-02T05:23:34;94264.47;;;8.56;66.78
47763;BME280;33526;42.690;23.322;2023-04-02T05:26:41;94269.41;;;8.28;68.82
47763;BME280;33526;42.690;23.322;2023-04-02T05:29:40;94258.50;;;8.15;67.64
47763;BME280;33526;42.690;23.322;2023-04-02T05:32:36;94274.34;;;7.66;68.27
47763;BME280;33526;42.690;23.322;2023-04-02T05:35:46;94270.16;;;7.19;68.85
47763;BME280;33526;42.690;23.322;2023-04-02T06:48:55;94303.47;;;9.19;63.90
47763;BME280;33526;42.690;23.322;2023-04-02T07:34:32;94312.84;;;10.56;60.60
47763;BME280;33526;42.690;23.322;2023-04-02T07:43:12;94329.63;;;11.38;57.98
47763;BME280;33526;42.690;23.322;2023-04-02T08:07:55;94272.88;;;12.28;48.52
47763;BME280;33526;42.690;23.322;2023-04-02T11:09:53;94272.38;;;14.79;42.06
47763;BME280;33526;42.690;23.322;2023-04-02T11:16:16;94275.03;;;15.24;41.84
47763;BME280;33526;42.690;23.322;2023-04-02T11:25:12;94280.09;;;14.50;41.65
47763;BME280;33526;42.690;23.322;2023-04-02T11:28:11;94287.97;;;14.86;41.20
47763;BME280;33526;42.690;23.322;2023-04-02T11:31:01;94274.66;;;14.86;40.81
47763;BME280;33526;42.690;23.322;2023-04-02T11:33:40;94269.78;;;14.93;40.58
47763;BME280;33526;42.690;23.322;2023-04-02T11:47:30;94261.06;;;15.02;40.80
47763;BME280;33526;42.690;23.322;2023-04-02T12:35:50;94248.09;;;15.82;38.46
47763;BME280;33526;42.690;23.322;2023-04-02T12:49:55;94245.09;;;15.68;38.12
47763;BME280;33526;42.690;23.322;2023-04-02T13:05:52;94235.31;;;15.34;38.07
47763;BME280;33526;42.690;23.322;2023-04-02T13:08:36;94224.53;;;15.38;38.12
47763;BME280;33526;42.690;23.322;2023-04-02T13:14:06;94221.81;;;15.62;37.59
47763;BME280;33526;42.690;23.322;2023-04-02T13:22:26;94225.72;;;15.90;37.09
47763;BME280;33526;42.690;23.322;2023-04-02T13:56:01;94196.75;;;16.50;33.58
47763;BME280;33526;42.690;23.322;2023-04-02T14:26:01;94203.69;;;15.94;35.43
47763;BME280;33526;42.690;23.322;2023-04-02T14:29:10;94208.34;;;15.85;35.34
47763;BME280;33526;42.690;23.322;2023-04-02T14:43:50;94198.81;;;15.94;34.66
47763;BME280;33526;42.690;23.322;2023-04-02T14:46:27;94194.06;;;15.78;34.63
47763;BME280;33526;42.690;23.322;2023-04-02T15:04:01;94211.75;;;15.78;34.88
47763;BME280;33526;42.690;23.322;2023-04-02T15:06:39;94209.03;;;15.61;34.99
47763;BME280;33526;42.690;23.322;2023-04-02T15:09:13;94217.56;;;15.44;35.36
47763;BME280;33526;42.690;23.322;2023-04-02T15:11:43;94202.19;;;15.51;34.92
47763;BME280;33526;42.690;23.322;2023-04-02T15:16:43;94216.25;;;15.51;34.88
47763;BME280;33526;42.690;23.322;2023-04-02T15:19:09;94217.53;;;15.50;34.78
47763;BME280;33526;42.690;23.322;2023-04-02T15:42:20;94214.44;;;15.12;34.97
47763;BME280;33526;42.690;23.322;2023-04-02T15:44:53;94221.94;;;14.98;35.71
47763;BME280;33526;42.690;23.322;2023-04-02T15:47:26;94218.38;;;14.86;34.74
47763;BME280;33526;42.690;23.322;2023-04-02T15:52:24;94219.38;;;14.89;34.90
47763;BME280;33526;42.690;23.322;2023-04-02T15:55:13;94219.66;;;14.91;34.95
47763;BME280;33526;42.690;23.322;2023-04-02T16:00:30;94230.63;;;15.00;34.03
47763;BME280;33526;42.690;23.322;2023-04-02T16:05:47;94229.84;;;15.00;34.10
47763;BME280;33526;42.690;23.322;2023-04-02T16:08:22;94236.50;;;15.02;33.97
47763;BME280;33526;42.690;23.322;2023-04-02T16:10:50;94237.00;;;15.01;34.03
47763;BME280;33526;42.690;23.322;2023-04-02T16:15:46;94239.63;;;14.87;34.56
47763;BME280;33526;42.690;23.322;2023-04-02T16:18:26;94232.22;;;14.84;34.66
47763;BME280;33526;42.690;23.322;2023-04-02T16:20:54;94233.25;;;14.81;34.61
47763;BME280;33526;42.690;23.322;2023-04-02T16:23:34;94234.81;;;14.71;34.48
47763;BME280;33526;42.690;23.322;2023-04-02T16:26:03;94239.69;;;14.65;34.61
47763;BME280;33526;42.690;23.322;2023-04-02T16:28:39;94228.97;;;14.58;35.06
47763;BME280;33526;42.690;23.322;2023-04-02T16:31:25;94241.50;;;14.40;34.99
47763;BME280;33526;42.690;23.322;2023-04-02T16:39:26;94246.88;;;14.38;35.08
47763;BME280;33526;42.690;23.322;2023-04-02T16:55:09;94258.66;;;14.02;36.41
47763;BME280;33526;42.690;23.322;2023-04-02T17:06:26;94261.22;;;13.89;36.85
47763;BME280;33526;42.690;23.322;2023-04-02T17:09:06;94271.97;;;13.85;37.17
47763;BME280;33526;42.690;23.322;2023-04-02T17:11:42;94271.19;;;13.79;37.75
47763;BME280;33526;42.690;23.322;2023-04-02T17:14:21;94269.88;;;13.68;38.34
47763;BME280;33526;42.690;23.322;2023-04-02T17:16:54;94282.66;;;13.58;38.83
47763;BME280;33526;42.690;23.322;2023-04-02T17:19:20;94286.47;;;13.55;39.13
47763;BME280;33526;42.690;23.322;2023-04-02T17:21:52;94276.25;;;13.52;39.44
47763;BME280;33526;42.690;23.322;2023-04-02T17:24:38;94279.53;;;13.45;40.09
47763;BME280;33526;42.690;23.322;2023-04-02T17:27:22;94290.50;;;13.37;40.60
47763;BME280;33526;42.690;23.322;2023-04-02T17:29:56;94283.88;;;13.34;41.09
47763;BME280;33526;42.690;23.322;2023-04-02T17:32:29;94305.00;;;13.24;41.29
47763;BME280;33526;42.690;23.322;2023-04-02T17:35:24;94306.75;;;13.22;41.55
47763;BME280;33526;42.690;23.322;2023-04-02T18:00:15;94334.00;;;12.61;43.83
47763;BME280;33526;42.690;23.322;2023-04-02T18:08:01;94341.56;;;12.49;44.25
47763;BME280;33526;42.690;23.322;2023-04-02T18:13:14;94349.91;;;12.38;44.95
47763;BME280;33526;42.690;23.322;2023-04-02T18:21:38;94368.16;;;12.28;45.06
47763;BME280;33526;42.690;23.322;2023-04-02T18:40:20;94398.28;;;12.33;44.62
47763;BME280;33526;42.690;23.322;2023-04-02T18:56:03;94399.69;;;12.22;44.74
47763;BME280;33526;42.690;23.322;2023-04-02T18:58:41;94403.78;;;12.21;44.74
47763;BME280;33526;42.690;23.322;2023-04-02T19:01:11;94401.47;;;12.20;44.47
47763;BME280;33526;42.690;23.322;2023-04-02T19:03:50;94410.59;;;12.15;44.87
47763;BME280;33526;42.690;23.322;2023-04-02T19:06:27;94408.00;;;12.11;44.77
47763;BME280;33526;42.690;23.322;2023-04-02T19:09:30;94406.41;;;12.04;45.34
47763;BME280;33526;42.690;23.322;2023-04-02T19:11:50;94408.41;;;11.98;45.51
47763;BME280;33526;42.690;23.322;2023-04-02T19:14:20;94416.53;;;11.96;45.77
47763;BME280;33526;42.690;23.322;2023-04-02T19:19:32;94414.34;;;11.85;46.30
47763;BME280;33526;42.690;23.322;2023-04-02T19:22:11;94418.13;;;11.82;46.26
47763;BME280;33526;42.690;23.322;2023-04-02T19:24:54;94418.94;;;11.83;46.05
47763;BME280;33526;42.690;23.322;2023-04-02T19:27:27;94412.75;;;11.79;46.33
47763;BME280;33526;42.690;23.322;2023-04-02T19:32:48;94418.56;;;11.75;46.68
47763;BME280;33526;42.690;23.322;2023-04-02T19:37:53;94410.13;;;11.70;46.75
47763;BME280;33526;42.690;23.322;2023-04-02T19:42:51;94409.22;;;11.58;47.58
47763;BME280;33526;42.690;23.322;2023-04-02T19:48:31;94420.13;;;11.56;48.17
47763;BME280;33526;42.690;23.322;2023-04-02T19:51:00;94428.47;;;11.50;48.00
47763;BME280;33526;42.690;23.322;2023-04-02T19:53:28;94429.94;;;11.45;48.41
47763;BME280;33526;42.690;23.322;2023-04-02T19:58:31;94430.16;;;11.42;48.88
47763;BME280;33526;42.690;23.322;2023-04-02T20:01:44;94430.38;;;11.38;49.12
47763;BME280;33526;42.690;23.322;2023-04-02T20:04:19;94431.34;;;11.35;49.17
47763;BME280;33526;42.690;23.322;2023-04-02T20:07:29;94430.50;;;11.29;49.54
47763;BME280;33526;42.690;23.322;2023-04-02T20:10:06;94432.72;;;11.25;49.65
47763;BME280;33526;42.690;23.322;2023-04-02T20:12:35;94426.31;;;11.19;50.08
47763;BME280;33526;42.690;23.322;2023-04-02T20:17:53;94369.88;;;10.64;50.05
47763;BME280;33526;42.690;23.322;2023-04-02T20:35:44;94421.28;;;10.87;51.80
47763;BME280;33526;42.690;23.322;2023-04-02T20:38:35;94430.47;;;10.88;51.68
47763;BME280;33526;42.690;23.322;2023-04-02T20:46:33;94440.56;;;10.85;52.59
47763;BME280;33526;42.690;23.322;2023-04-02T20:59:54;94439.06;;;10.69;53.74
47763;BME280;33526;42.690;23.322;2023-04-02T21:02:49;94440.59;;;10.70;53.93
47763;BME280;33526;42.690;23.322;2023-04-02T21:05:30;94438.69;;;10.62;54.02
47763;BME280;33526;42.690;23.322;2023-04-02T21:08:20;94434.84;;;10.59;54.14
47763;BME280;33526;42.690;23.322;2023-04-02T21:10:59;94443.91;;;10.54;54.22
47763;BME280;33526;42.690;23.322;2023-04-02T21:18:51;94449.34;;;10.43;54.72
47763;BME280;33526;42.690;23.322;2023-04-02T21:24:54;94465.81;;;10.41;55.28
47763;BME280;33526;42.690;23.322;2023-04-02T21:27:32;94463.03;;;10.41;55.79
47763;BME280;33526;42.690;23.322;2023-04-02T21:42:03;94470.50;;;10.20;56.49
47763;BME280;33526;42.690;23.322;2023-04-02T21:44:37;94461.03;;;10.17;56.40
47763;BME280;33526;42.690;23.322;2023-04-02T21:47:15;94466.72;;;10.08;56.64
47763;BME280;33526;42.690;23.322;2023-04-02T21:49:41;94461.78;;;10.03;56.98
47763;BME280;33526;42.690;23.322;2023-04-02T21:52:23;94470.88;;;9.98;57.05
47763;BME280;33526;42.690;23.322;2023-04-02T21:54:52;94466.22;;;9.94;57.52
47763;BME280;33526;42.690;23.322;2023-04-02T21:57:21;94475.56;;;9.91;57.42
47763;BME280;33526;42.690;23.322;2023-04-02T21:59:47;94477.00;;;9.87;57.96
47763;BME280;33526;42.690;23.322;2023-04-02T22:02:18;94478.72;;;9.84;57.70
47763;BME280;33526;42.690;23.322;2023-04-02T22:04:43;94475.63;;;9.82;58.06
47763;BME280;33526;42.690;23.322;2023-04-02T22:07:10;94474.28;;;9.77;58.34
47763;BME280;33526;42.690;23.322;2023-04-02T22:09:42;94472.16;;;9.72;58.52
47763;BME280;33526;42.690;23.322;2023-04-02T22:12:18;94470.91;;;9.73;58.70
47763;BME280;33526;42.690;23.322;2023-04-02T22:14:46;94476.00;;;9.75;59.22
47763;BME280;33526;42.690;23.322;2023-04-02T22:17:13;94469.47;;;9.78;58.91
47763;BME280;33526;42.690;23.322;2023-04-02T22:19:38;94476.00;;;9.75;59.04
47763;BME280;33526;42.690;23.322;2023-04-02T22:22:05;94476.78;;;9.75;59.12
47763;BME280;33526;42.690;23.322;2023-04-02T22:24:32;94474.78;;;9.76;58.92
47763;BME280;33526;42.690;23.322;2023-04-02T22:26:58;94472.94;;;9.73;58.85
47763;BME280;33526;42.690;23.322;2023-04-02T22:29:23;94480.03;;;9.74;58.97
47763;BME280;33526;42.690;23.322;2023-04-02T22:31:50;94476.38;;;9.68;59.00
47763;BME280;33526;42.690;23.322;2023-04-02T22:34:15;94476.38;;;9.68;59.24
47763;BME280;33526;42.690;23.322;2023-04-02T22:36:43;94481.19;;;9.67;59.57
47763;BME280;33526;42.690;23.322;2023-04-02T22:39:09;94479.81;;;9.63;59.73
47763;BME280;33526;42.690;23.322;2023-04-02T22:41:36;94483.09;;;9.61;59.85
47763;BME280;33526;42.690;23.322;2023-04-02T22:44:02;94480.00;;;9.59;59.98
47763;BME280;33526;42.690;23.322;2023-04-02T22:46:28;94482.50;;;9.57;60.10
47763;BME280;33526;42.690;23.322;2023-04-02T22:48:56;94482.97;;;9.55;60.21
47763;BME280;33526;42.690;23.322;2023-04-02T22:51:38;94473.06;;;9.54;60.12
47763;BME280;33526;42.690;23.322;2023-04-02T22:54:05;94473.25;;;9.51;60.30
47763;BME280;33526;42.690;23.322;2023-04-02T22:56:32;94472.66;;;9.47;59.86
47763;BME280;33526;42.690;23.322;2023-04-02T22:59:01;94474.84;;;9.43;60.28
47763;BME280;33526;42.690;23.322;2023-04-02T23:01:31;94470.84;;;9.44;60.88
47763;BME280;33526;42.690;23.322;2023-04-02T23:04:02;94475.63;;;9.43;60.92
47763;BME280;33526;42.690;23.322;2023-04-02T23:06:30;94471.13;;;9.46;60.54
47763;BME280;33526;42.690;23.322;2023-04-02T23:08:56;94479.97;;;9.44;60.48
47763;BME280;33526;42.690;23.322;2023-04-02T23:11:25;94475.63;;;9.43;60.61
47763;BME280;33526;42.690;23.322;2023-04-02T23:13:52;94480.91;;;9.41;60.85
47763;BME280;33526;42.690;23.322;2023-04-02T23:16:18;94471.31;;;9.42;60.93
47763;BME280;33526;42.690;23.322;2023-04-02T23:18:44;94476.28;;;9.38;60.97
47763;BME280;33526;42.690;23.322;2023-04-02T23:21:13;94484.81;;;9.34;61.84
47763;BME280;33526;42.690;23.322;2023-04-02T23:23:38;94478.19;;;9.32;61.47
47763;BME280;33526;42.690;23.322;2023-04-02T23:26:14;94476.63;;;9.31;61.44
47763;BME280;33526;42.690;23.322;2023-04-02T23:28:40;94475.16;;;9.21;61.61
47763;BME280;33526;42.690;23.322;2023-04-02T23:31:06;94479.97;;;9.20;61.66
47763;BME280;33526;42.690;23.322;2023-04-02T23:33:32;94470.06;;;9.19;62.05
47763;BME280;33526;42.690;23.322;2023-04-02T23:35:57;94461.22;;;9.21;62.17
47763;BME280;33526;42.690;23.322;2023-04-02T23:38:25;94475.34;;;9.17;62.11
47763;BME280;33526;42.690;23.322;2023-04-02T23:40:52;94476.56;;;9.16;62.07
47763;BME280;33526;42.690;23.322;2023-04-02T23:43:17;94474.25;;;9.14;61.99
47763;BME280;33526;42.690;23.322;2023-04-02T23:45:49;94465.00;;;9.08;62.62
47763;BME280;33526;42.690;23.322;2023-04-02T23:48:15;94471.81;;;9.07;62.57
47763;BME280;33526;42.690;23.322;2023-04-02T23:50:40;94459.13;;;9.06;62.41
47763;BME280;33526;42.690;23.322;2023-04-02T23:53:06;94462.69;;;9.07;63.19
47763;BME280;33526;42.690;23.322;2023-04-02T23:55:31;94460.72;;;8.98;63.62
47763;BME280;33526;42.690;23.322;2023-04-02T23:57:57;94464.16;;;8.93;64.05
